DTTX/SFA METAR and TAF weather

Enter ICAO airport designator
Station Type Date Time Source
DTTX METAR 2019/12/13 00:00 UTC NOAA

DTTX 130000Z 25004KT 8000 FEW030 11/04 Q1012


Station Type Date Time Source
DTTX Decoded METAR 2019/12/13 00:00 UTC NOAA

Sfax El-Maou, Tunisia (DTTX) 34-43N 010-41E 23M
Dec 12, 2019 - 07:00 PM EST / 2019.12.13 0000 UTC
Wind: from the WSW (250 degrees) at 5 MPH (4 KT):0
Visibility: 4 mile(s):0
Sky conditions: mostly clear
Temperature: 51 F (11 C)
Dew Point: 39 F (4 C)
Relative Humidity: 61%
Pressure (altimeter): 29.88 in. Hg (1012 hPa)
ob: DTTX 130000Z 25004KT 8000 FEW030 11/04 Q1012
cycle: 0

Station Type Date Time Source
DTTX TAF 2019/12/13 00:00 UTC NOAA

TAF DTTX 122300Z 1300/1324 25005KT 9999 FEW030
BECMG 1309/1311 22015KT

Example: see airport list